sensor_id;sensor_type;location;lat;lon;timestamp;temperature;humidity
17632;DHT22;8934;51.194;17.150;2023-07-24T00:01:09;17.10;99.90
17632;DHT22;8934;51.194;17.150;2023-07-24T00:03:57;17.00;99.90
17632;DHT22;8934;51.194;17.150;2023-07-24T00:06:45;16.90;99.90
17632;DHT22;8934;51.194;17.150;2023-07-24T00:09:33;16.80;99.90
17632;DHT22;8934;51.194;17.150;2023-07-24T00:12:20;16.70;99.90
17632;DHT22;8934;51.194;17.150;2023-07-24T00:15:08;16.60;99.90
17632;DHT22;8934;51.194;17.150;2023-07-24T00:17:56;16.50;99.90
17632;DHT22;8934;51.194;17.150;2023-07-24T00:20:44;16.40;99.90
17632;DHT22;8934;51.194;17.150;2023-07-24T00:23:31;16.30;99.90
17632;DHT22;8934;51.194;17.150;2023-07-24T00:26:18;16.30;99.90
17632;DHT22;8934;51.194;17.150;2023-07-24T00:29:06;16.20;99.90
17632;DHT22;8934;51.194;17.150;2023-07-24T00:31:54;16.10;99.90
17632;DHT22;8934;51.194;17.150;2023-07-24T00:34:42;16.00;99.90
17632;DHT22;8934;51.194;17.150;2023-07-24T00:37:30;16.00;99.90
17632;DHT22;8934;51.194;17.150;2023-07-24T00:40:17;15.90;99.90
17632;DHT22;8934;51.194;17.150;2023-07-24T00:43:05;15.90;99.90
17632;DHT22;8934;51.194;17.150;2023-07-24T00:45:54;15.80;99.90
17632;DHT22;8934;51.194;17.150;2023-07-24T00:48:42;15.80;99.90
17632;DHT22;8934;51.194;17.150;2023-07-24T00:51:33;15.70;99.90
17632;DHT22;8934;51.194;17.150;2023-07-24T00:54:22;15.70;99.90
17632;DHT22;8934;51.194;17.150;2023-07-24T00:57:09;15.60;99.90
17632;DHT22;8934;51.194;17.150;2023-07-24T00:59:57;15.60;99.90
17632;DHT22;8934;51.194;17.150;2023-07-24T01:02:44;15.50;99.90
17632;DHT22;8934;51.194;17.150;2023-07-24T01:05:31;15.40;99.90
17632;DHT22;8934;51.194;17.150;2023-07-24T01:08:20;15.40;99.90
17632;DHT22;8934;51.194;17.150;2023-07-24T01:11:12;15.30;99.90
17632;DHT22;8934;51.194;17.150;2023-07-24T01:14:06;15.30;99.90
17632;DHT22;8934;51.194;17.150;2023-07-24T01:16:56;15.30;99.90
17632;DHT22;8934;51.194;17.150;2023-07-24T01:19:47;15.20;99.90
17632;DHT22;8934;51.194;17.150;2023-07-24T01:22:39;15.20;99.90
17632;DHT22;8934;51.194;17.150;2023-07-24T01:25:35;15.20;99.90
17632;DHT22;8934;51.194;17.150;2023-07-24T01:28:26;15.20;99.90
17632;DHT22;8934;51.194;17.150;2023-07-24T01:31:14;15.10;99.90
17632;DHT22;8934;51.194;17.150;2023-07-24T01:34:02;15.10;99.90
17632;DHT22;8934;51.194;17.150;2023-07-24T01:36:50;15.10;99.90
17632;DHT22;8934;51.194;17.150;2023-07-24T01:39:38;15.10;99.90
17632;DHT22;8934;51.194;17.150;2023-07-24T01:42:27;15.00;99.90
17632;DHT22;8934;51.194;17.150;2023-07-24T01:45:16;15.00;99.90
17632;DHT22;8934;51.194;17.150;2023-07-24T01:48:04;15.00;99.90
17632;DHT22;8934;51.194;17.150;2023-07-24T01:50:52;15.00;99.90
17632;DHT22;8934;51.194;17.150;2023-07-24T01:53:39;15.00;99.90
17632;DHT22;8934;51.194;17.150;2023-07-24T01:56:27;14.90;99.90
17632;DHT22;8934;51.194;17.150;2023-07-24T01:59:14;14.90;99.90
17632;DHT22;8934;51.194;17.150;2023-07-24T02:02:03;14.90;99.90
17632;DHT22;8934;51.194;17.150;2023-07-24T02:04:51;14.90;99.90
17632;DHT22;8934;51.194;17.150;2023-07-24T02:07:38;14.80;99.90
17632;DHT22;8934;51.194;17.150;2023-07-24T02:10:26;14.80;99.90
17632;DHT22;8934;51.194;17.150;2023-07-24T02:13:13;14.80;99.90
17632;DHT22;8934;51.194;17.150;2023-07-24T02:16:07;14.80;99.90
17632;DHT22;8934;51.194;17.150;2023-07-24T02:18:55;14.80;99.90
17632;DHT22;8934;51.194;17.150;2023-07-24T02:21:43;14.80;99.90
17632;DHT22;8934;51.194;17.150;2023-07-24T02:24:30;14.80;99.90
17632;DHT22;8934;51.194;17.150;2023-07-24T02:27:25;14.90;99.90
17632;DHT22;8934;51.194;17.150;2023-07-24T02:30:16;14.90;99.90
17632;DHT22;8934;51.194;17.150;2023-07-24T02:33:03;14.90;99.90
17632;DHT22;8934;51.194;17.150;2023-07-24T02:35:52;15.00;99.90
17632;DHT22;8934;51.194;17.150;2023-07-24T02:38:39;15.10;99.90
17632;DHT22;8934;51.194;17.150;2023-07-24T02:41:27;15.10;99.90
17632;DHT22;8934;51.194;17.150;2023-07-24T02:44:14;15.20;99.90
17632;DHT22;8934;51.194;17.150;2023-07-24T02:47:02;15.20;99.90
17632;DHT22;8934;51.194;17.150;2023-07-24T02:49:49;15.20;99.90
17632;DHT22;8934;51.194;17.150;2023-07-24T02:52:38;15.30;99.90
17632;DHT22;8934;51.194;17.150;2023-07-24T02:55:25;15.30;99.90
17632;DHT22;8934;51.194;17.150;2023-07-24T02:58:14;15.30;99.90
17632;DHT22;8934;51.194;17.150;2023-07-24T03:01:03;15.30;99.90
17632;DHT22;8934;51.194;17.150;2023-07-24T03:03:52;15.30;99.90
17632;DHT22;8934;51.194;17.150;2023-07-24T03:06:40;15.30;99.90
17632;DHT22;8934;51.194;17.150;2023-07-24T03:09:28;15.20;99.90
17632;DHT22;8934;51.194;17.150;2023-07-24T03:12:15;15.20;99.90
17632;DHT22;8934;51.194;17.150;2023-07-24T03:15:05;15.10;99.90
17632;DHT22;8934;51.194;17.150;2023-07-24T03:17:52;15.10;99.90
17632;DHT22;8934;51.194;17.150;2023-07-24T03:20:39;15.00;99.90
17632;DHT22;8934;51.194;17.150;2023-07-24T03:23:27;15.00;99.90
17632;DHT22;8934;51.194;17.150;2023-07-24T03:26:16;14.90;99.90
17632;DHT22;8934;51.194;17.150;2023-07-24T03:29:05;14.90;99.90
17632;DHT22;8934;51.194;17.150;2023-07-24T03:31:52;14.90;99.90
17632;DHT22;8934;51.194;17.150;2023-07-24T03:34:40;14.80;99.90
17632;DHT22;8934;51.194;17.150;2023-07-24T03:37:28;14.80;99.90
17632;DHT22;8934;51.194;17.150;2023-07-24T03:40:16;14.90;99.90
17632;DHT22;8934;51.194;17.150;2023-07-24T03:43:04;14.90;99.90
17632;DHT22;8934;51.194;17.150;2023-07-24T03:45:52;15.00;99.90
17632;DHT22;8934;51.194;17.150;2023-07-24T03:48:39;15.10;99.90
17632;DHT22;8934;51.194;17.150;2023-07-24T03:51:26;15.20;99.90
17632;DHT22;8934;51.194;17.150;2023-07-24T03:54:14;15.30;99.90
17632;DHT22;8934;51.194;17.150;2023-07-24T03:57:01;15.50;99.90
17632;DHT22;8934;51.194;17.150;2023-07-24T03:59:50;15.60;99.90
17632;DHT22;8934;51.194;17.150;2023-07-24T04:02:38;15.70;99.90
17632;DHT22;8934;51.194;17.150;2023-07-24T04:05:26;15.80;99.90
17632;DHT22;8934;51.194;17.150;2023-07-24T04:08:13;15.90;99.90
17632;DHT22;8934;51.194;17.150;2023-07-24T04:11:00;16.10;99.90
17632;DHT22;8934;51.194;17.150;2023-07-24T04:13:48;16.10;99.90
17632;DHT22;8934;51.194;17.150;2023-07-24T04:16:36;16.20;99.90
17632;DHT22;8934;51.194;17.150;2023-07-24T04:19:24;16.30;99.90
17632;DHT22;8934;51.194;17.150;2023-07-24T04:22:11;16.40;99.90
17632;DHT22;8934;51.194;17.150;2023-07-24T04:24:58;16.50;99.90
17632;DHT22;8934;51.194;17.150;2023-07-24T04:27:45;16.70;99.90
17632;DHT22;8934;51.194;17.150;2023-07-24T04:30:33;16.80;99.90
17632;DHT22;8934;51.194;17.150;2023-07-24T04:33:21;17.00;99.90
17632;DHT22;8934;51.194;17.150;2023-07-24T04:36:13;17.20;99.90
17632;DHT22;8934;51.194;17.150;2023-07-24T04:39:03;17.40;99.90
17632;DHT22;8934;51.194;17.150;2023-07-24T04:41:51;17.70;99.90
17632;DHT22;8934;51.194;17.150;2023-07-24T04:44:38;17.90;99.90
17632;DHT22;8934;51.194;17.150;2023-07-24T04:47:25;18.00;99.90
17632;DHT22;8934;51.194;17.150;2023-07-24T04:50:14;18.20;99.90
17632;DHT22;8934;51.194;17.150;2023-07-24T04:53:02;18.40;99.90
17632;DHT22;8934;51.194;17.150;2023-07-24T04:55:49;18.50;99.90
17632;DHT22;8934;51.194;17.150;2023-07-24T04:58:36;18.50;99.90
17632;DHT22;8934;51.194;17.150;2023-07-24T05:01:24;18.60;99.90
17632;DHT22;8934;51.194;17.150;2023-07-24T05:04:11;18.60;99.90
17632;DHT22;8934;51.194;17.150;2023-07-24T05:07:00;18.70;99.90
17632;DHT22;8934;51.194;17.150;2023-07-24T05:09:47;18.90;99.90
17632;DHT22;8934;51.194;17.150;2023-07-24T05:12:35;18.90;99.90
17632;DHT22;8934;51.194;17.150;2023-07-24T05:15:22;19.00;99.90
17632;DHT22;8934;51.194;17.150;2023-07-24T05:18:10;19.10;99.90
17632;DHT22;8934;51.194;17.150;2023-07-24T05:20:57;19.20;99.90
17632;DHT22;8934;51.194;17.150;2023-07-24T05:23:45;19.20;99.90
17632;DHT22;8934;51.194;17.150;2023-07-24T05:26:33;19.30;99.90
17632;DHT22;8934;51.194;17.150;2023-07-24T05:29:20;19.40;99.90
17632;DHT22;8934;51.194;17.150;2023-07-24T05:32:08;19.50;99.90
17632;DHT22;8934;51.194;17.150;2023-07-24T05:34:55;19.60;99.90
17632;DHT22;8934;51.194;17.150;2023-07-24T05:37:43;19.70;99.90
17632;DHT22;8934;51.194;17.150;2023-07-24T05:40:32;19.80;99.90
17632;DHT22;8934;51.194;17.150;2023-07-24T05:43:19;19.90;99.90
17632;DHT22;8934;51.194;17.150;2023-07-24T05:46:06;20.00;99.90
17632;DHT22;8934;51.194;17.150;2023-07-24T05:48:53;20.20;99.90
17632;DHT22;8934;51.194;17.150;2023-07-24T05:51:42;20.30;99.90
17632;DHT22;8934;51.194;17.150;2023-07-24T05:54:30;20.50;99.90
17632;DHT22;8934;51.194;17.150;2023-07-24T05:57:19;20.70;99.90
17632;DHT22;8934;51.194;17.150;2023-07-24T06:00:07;20.90;99.90
17632;DHT22;8934;51.194;17.150;2023-07-24T06:02:57;21.00;99.90
17632;DHT22;8934;51.194;17.150;2023-07-24T06:05:44;21.20;99.90
17632;DHT22;8934;51.194;17.150;2023-07-24T06:08:32;21.20;99.90
17632;DHT22;8934;51.194;17.150;2023-07-24T06:11:19;21.40;99.90
17632;DHT22;8934;51.194;17.150;2023-07-24T06:14:08;21.40;99.90
17632;DHT22;8934;51.194;17.150;2023-07-24T06:16:55;21.50;99.90
17632;DHT22;8934;51.194;17.150;2023-07-24T06:19:43;21.60;99.90
17632;DHT22;8934;51.194;17.150;2023-07-24T06:22:30;21.70;99.90
17632;DHT22;8934;51.194;17.150;2023-07-24T06:25:17;21.70;99.90
17632;DHT22;8934;51.194;17.150;2023-07-24T06:28:05;21.80;99.90
17632;DHT22;8934;51.194;17.150;2023-07-24T06:30:53;21.80;99.90
17632;DHT22;8934;51.194;17.150;2023-07-24T06:33:41;21.90;99.90
17632;DHT22;8934;51.194;17.150;2023-07-24T06:36:28;21.90;99.90
17632;DHT22;8934;51.194;17.150;2023-07-24T06:39:16;22.00;99.90
17632;DHT22;8934;51.194;17.150;2023-07-24T06:42:04;22.10;99.90
17632;DHT22;8934;51.194;17.150;2023-07-24T06:44:51;22.20;99.90
17632;DHT22;8934;51.194;17.150;2023-07-24T06:47:40;22.40;99.90
17632;DHT22;8934;51.194;17.150;2023-07-24T06:50:28;22.50;99.90
17632;DHT22;8934;51.194;17.150;2023-07-24T06:53:15;22.70;99.90
17632;DHT22;8934;51.194;17.150;2023-07-24T06:56:02;22.90;99.90
17632;DHT22;8934;51.194;17.150;2023-07-24T06:58:50;23.00;99.90
17632;DHT22;8934;51.194;17.150;2023-07-24T07:01:38;23.20;99.90
17632;DHT22;8934;51.194;17.150;2023-07-24T07:04:26;23.20;99.90
17632;DHT22;8934;51.194;17.150;2023-07-24T07:07:14;23.20;99.90
17632;DHT22;8934;51.194;17.150;2023-07-24T07:10:01;23.30;99.90
17632;DHT22;8934;51.194;17.150;2023-07-24T07:12:48;23.30;99.90
17632;DHT22;8934;51.194;17.150;2023-07-24T07:15:36;23.40;99.90
17632;DHT22;8934;51.194;17.150;2023-07-24T07:18:23;23.50;99.90
17632;DHT22;8934;51.194;17.150;2023-07-24T07:21:12;23.50;99.90
17632;DHT22;8934;51.194;17.150;2023-07-24T07:23:59;23.70;99.90
17632;DHT22;8934;51.194;17.150;2023-07-24T07:26:46;23.90;99.90
17632;DHT22;8934;51.194;17.150;2023-07-24T07:29:34;24.00;99.90
17632;DHT22;8934;51.194;17.150;2023-07-24T07:32:21;24.20;99.90
17632;DHT22;8934;51.194;17.150;2023-07-24T07:35:08;24.40;99.90
17632;DHT22;8934;51.194;17.150;2023-07-24T07:37:57;24.60;99.90
17632;DHT22;8934;51.194;17.150;2023-07-24T07:40:45;24.80;99.90
17632;DHT22;8934;51.194;17.150;2023-07-24T07:43:32;25.00;99.90
17632;DHT22;8934;51.194;17.150;2023-07-24T07:46:20;25.10;99.90
17632;DHT22;8934;51.194;17.150;2023-07-24T07:49:08;25.20;99.90
17632;DHT22;8934;51.194;17.150;2023-07-24T07:51:55;25.30;99.90
17632;DHT22;8934;51.194;17.150;2023-07-24T07:54:47;25.40;99.90
17632;DHT22;8934;51.194;17.150;2023-07-24T07:57:35;25.70;99.90
17632;DHT22;8934;51.194;17.150;2023-07-24T08:00:22;25.80;99.90
17632;DHT22;8934;51.194;17.150;2023-07-24T08:03:09;26.10;99.90
17632;DHT22;8934;51.194;17.150;2023-07-24T08:05:57;26.30;99.90
17632;DHT22;8934;51.194;17.150;2023-07-24T08:08:44;26.60;99.90
17632;DHT22;8934;51.194;17.150;2023-07-24T08:11:33;26.70;99.90
17632;DHT22;8934;51.194;17.150;2023-07-24T08:14:20;26.90;99.90
17632;DHT22;8934;51.194;17.150;2023-07-24T08:17:08;27.10;99.90
17632;DHT22;8934;51.194;17.150;2023-07-24T08:19:55;27.40;99.90
17632;DHT22;8934;51.194;17.150;2023-07-24T08:22:42;27.40;99.90
17632;DHT22;8934;51.194;17.150;2023-07-24T08:25:30;27.50;99.90
17632;DHT22;8934;51.194;17.150;2023-07-24T08:28:19;27.70;99.90
17632;DHT22;8934;51.194;17.150;2023-07-24T08:31:07;27.90;99.90
17632;DHT22;8934;51.194;17.150;2023-07-24T08:33:54;28.10;99.90
17632;DHT22;8934;51.194;17.150;2023-07-24T08:36:41;28.50;99.90
17632;DHT22;8934;51.194;17.150;2023-07-24T08:39:30;28.60;99.40
17632;DHT22;8934;51.194;17.150;2023-07-24T08:42:18;28.50;98.90
17632;DHT22;8934;51.194;17.150;2023-07-24T08:45:11;28.60;99.90
17632;DHT22;8934;51.194;17.150;2023-07-24T08:47:59;28.80;98.90
17632;DHT22;8934;51.194;17.150;2023-07-24T08:50:47;29.00;97.40
17632;DHT22;8934;51.194;17.150;2023-07-24T08:53:38;29.20;97.70
17632;DHT22;8934;51.194;17.150;2023-07-24T08:56:25;29.30;96.70
17632;DHT22;8934;51.194;17.150;2023-07-24T08:59:13;29.50;95.90
17632;DHT22;8934;51.194;17.150;2023-07-24T09:02:02;29.50;96.30
17632;DHT22;8934;51.194;17.150;2023-07-24T09:04:49;29.70;95.90
17632;DHT22;8934;51.194;17.150;2023-07-24T09:07:37;29.80;94.80
17632;DHT22;8934;51.194;17.150;2023-07-24T09:10:25;29.90;94.20
17632;DHT22;8934;51.194;17.150;2023-07-24T09:13:12;30.20;94.20
17632;DHT22;8934;51.194;17.150;2023-07-24T09:16:00;30.70;93.30
17632;DHT22;8934;51.194;17.150;2023-07-24T09:18:49;31.10;93.10
17632;DHT22;8934;51.194;17.150;2023-07-24T09:21:55;31.30;92.30
17632;DHT22;8934;51.194;17.150;2023-07-24T09:24:49;31.50;91.70
17632;DHT22;8934;51.194;17.150;2023-07-24T09:27:38;31.60;92.30
17632;DHT22;8934;51.194;17.150;2023-07-24T09:30:26;31.80;91.50
17632;DHT22;8934;51.194;17.150;2023-07-24T09:33:14;31.60;90.40
17632;DHT22;8934;51.194;17.150;2023-07-24T09:36:03;31.30;90.90
17632;DHT22;8934;51.194;17.150;2023-07-24T09:39:00;31.00;89.40
17632;DHT22;8934;51.194;17.150;2023-07-24T09:41:49;30.60;91.50
17632;DHT22;8934;51.194;17.150;2023-07-24T09:44:36;30.50;90.70
17632;DHT22;8934;51.194;17.150;2023-07-24T09:47:24;30.50;91.40
17632;DHT22;8934;51.194;17.150;2023-07-24T09:50:31;30.40;91.30
17632;DHT22;8934;51.194;17.150;2023-07-24T09:53:26;30.10;91.10
17632;DHT22;8934;51.194;17.150;2023-07-24T09:56:17;29.80;92.20
17632;DHT22;8934;51.194;17.150;2023-07-24T09:59:13;29.50;92.30
17632;DHT22;8934;51.194;17.150;2023-07-24T10:02:01;29.30;92.80
17632;DHT22;8934;51.194;17.150;2023-07-24T10:04:49;29.80;92.50
17632;DHT22;8934;51.194;17.150;2023-07-24T10:07:37;30.10;92.10
17632;DHT22;8934;51.194;17.150;2023-07-24T10:10:27;30.70;92.10
17632;DHT22;8934;51.194;17.150;2023-07-24T10:13:16;31.20;90.80
17632;DHT22;8934;51.194;17.150;2023-07-24T10:16:04;31.80;90.30
17632;DHT22;8934;51.194;17.150;2023-07-24T10:18:53;32.30;86.70
17632;DHT22;8934;51.194;17.150;2023-07-24T10:21:44;32.60;87.70
17632;DHT22;8934;51.194;17.150;2023-07-24T10:24:33;32.90;84.60
17632;DHT22;8934;51.194;17.150;2023-07-24T10:27:29;32.90;83.50
17632;DHT22;8934;51.194;17.150;2023-07-24T10:30:17;32.90;80.70
17632;DHT22;8934;51.194;17.150;2023-07-24T10:33:20;32.80;82.80
17632;DHT22;8934;51.194;17.150;2023-07-24T10:36:09;32.40;82.40
17632;DHT22;8934;51.194;17.150;2023-07-24T10:38:58;32.10;86.30
17632;DHT22;8934;51.194;17.150;2023-07-24T10:41:47;31.80;85.30
17632;DHT22;8934;51.194;17.150;2023-07-24T10:44:36;31.80;84.30
17632;DHT22;8934;51.194;17.150;2023-07-24T10:47:24;31.70;85.10
17632;DHT22;8934;51.194;17.150;2023-07-24T10:50:11;31.60;87.50
17632;DHT22;8934;51.194;17.150;2023-07-24T10:53:01;31.60;86.70
17632;DHT22;8934;51.194;17.150;2023-07-24T10:55:50;31.60;87.40
17632;DHT22;8934;51.194;17.150;2023-07-24T10:58:38;31.50;87.60
17632;DHT22;8934;51.194;17.150;2023-07-24T11:01:27;31.40;87.30
17632;DHT22;8934;51.194;17.150;2023-07-24T11:04:15;31.30;86.90
17632;DHT22;8934;51.194;17.150;2023-07-24T11:07:03;31.20;87.10
17632;DHT22;8934;51.194;17.150;2023-07-24T11:09:50;30.90;87.60
17632;DHT22;8934;51.194;17.150;2023-07-24T11:12:39;30.60;88.80
17632;DHT22;8934;51.194;17.150;2023-07-24T11:15:26;30.50;89.80
17632;DHT22;8934;51.194;17.150;2023-07-24T11:18:15;30.40;91.00
17632;DHT22;8934;51.194;17.150;2023-07-24T11:21:03;30.70;90.70
17632;DHT22;8934;51.194;17.150;2023-07-24T11:23:54;31.20;90.90
17632;DHT22;8934;51.194;17.150;2023-07-24T11:26:42;31.70;90.50
17632;DHT22;8934;51.194;17.150;2023-07-24T11:29:30;32.30;89.60
17632;DHT22;8934;51.194;17.150;2023-07-24T11:32:18;32.80;88.20
17632;DHT22;8934;51.194;17.150;2023-07-24T11:35:08;33.30;88.20
17632;DHT22;8934;51.194;17.150;2023-07-24T11:37:56;33.50;86.70
17632;DHT22;8934;51.194;17.150;2023-07-24T11:40:44;33.30;85.40
17632;DHT22;8934;51.194;17.150;2023-07-24T11:43:31;33.00;84.40
17632;DHT22;8934;51.194;17.150;2023-07-24T11:46:23;32.60;86.80
17632;DHT22;8934;51.194;17.150;2023-07-24T11:49:14;32.10;88.40
17632;DHT22;8934;51.194;17.150;2023-07-24T11:52:05;31.60;89.00
17632;DHT22;8934;51.194;17.150;2023-07-24T11:54:56;31.40;90.30
17632;DHT22;8934;51.194;17.150;2023-07-24T11:57:57;31.60;90.70
17632;DHT22;8934;51.194;17.150;2023-07-24T12:00:45;32.00;90.10
17632;DHT22;8934;51.194;17.150;2023-07-24T12:03:33;32.20;90.10
17632;DHT22;8934;51.194;17.150;2023-07-24T12:06:21;32.40;89.20
17632;DHT22;8934;51.194;17.150;2023-07-24T12:09:12;32.70;87.30
17632;DHT22;8934;51.194;17.150;2023-07-24T12:11:59;33.00;86.00
17632;DHT22;8934;51.194;17.150;2023-07-24T12:14:46;33.30;84.80
17632;DHT22;8934;51.194;17.150;2023-07-24T12:17:34;33.50;83.80
17632;DHT22;8934;51.194;17.150;2023-07-24T12:20:21;33.70;83.20
17632;DHT22;8934;51.194;17.150;2023-07-24T12:23:08;33.70;83.90
17632;DHT22;8934;51.194;17.150;2023-07-24T12:25:57;33.80;83.30
17632;DHT22;8934;51.194;17.150;2023-07-24T12:28:44;33.80;84.10
17632;DHT22;8934;51.194;17.150;2023-07-24T12:31:32;33.60;86.30
17632;DHT22;8934;51.194;17.150;2023-07-24T12:34:20;33.40;83.50
17632;DHT22;8934;51.194;17.150;2023-07-24T12:37:07;33.30;82.70
17632;DHT22;8934;51.194;17.150;2023-07-24T12:39:54;33.20;82.40
17632;DHT22;8934;51.194;17.150;2023-07-24T12:42:43;33.10;82.70
17632;DHT22;8934;51.194;17.150;2023-07-24T12:45:30;32.90;84.20
17632;DHT22;8934;51.194;17.150;2023-07-24T12:48:17;32.90;83.50
17632;DHT22;8934;51.194;17.150;2023-07-24T12:51:05;32.70;84.20
17632;DHT22;8934;51.194;17.150;2023-07-24T12:53:52;32.70;85.10
17632;DHT22;8934;51.194;17.150;2023-07-24T12:56:58;32.60;83.70
17632;DHT22;8934;51.194;17.150;2023-07-24T12:59:47;32.40;84.90
17632;DHT22;8934;51.194;17.150;2023-07-24T13:02:34;32.10;84.80
17632;DHT22;8934;51.194;17.150;2023-07-24T13:05:22;31.90;85.20
17632;DHT22;8934;51.194;17.150;2023-07-24T13:08:09;31.80;85.20
17632;DHT22;8934;51.194;17.150;2023-07-24T13:10:56;31.60;86.00
17632;DHT22;8934;51.194;17.150;2023-07-24T13:13:44;31.60;86.70
17632;DHT22;8934;51.194;17.150;2023-07-24T13:16:33;31.40;84.00
17632;DHT22;8934;51.194;17.150;2023-07-24T13:19:20;31.30;84.30
17632;DHT22;8934;51.194;17.150;2023-07-24T13:22:08;31.20;86.60
17632;DHT22;8934;51.194;17.150;2023-07-24T13:24:55;31.20;85.80
17632;DHT22;8934;51.194;17.150;2023-07-24T13:27:43;31.30;85.70
17632;DHT22;8934;51.194;17.150;2023-07-24T13:30:30;31.40;87.00
17632;DHT22;8934;51.194;17.150;2023-07-24T13:33:19;31.60;87.60
17632;DHT22;8934;51.194;17.150;2023-07-24T13:36:08;31.70;86.20
17632;DHT22;8934;51.194;17.150;2023-07-24T13:38:55;31.70;85.90
17632;DHT22;8934;51.194;17.150;2023-07-24T13:41:43;31.80;84.80
17632;DHT22;8934;51.194;17.150;2023-07-24T13:44:30;31.70;83.90
17632;DHT22;8934;51.194;17.150;2023-07-24T13:47:17;31.60;84.50
17632;DHT22;8934;51.194;17.150;2023-07-24T13:50:09;31.50;85.40
17632;DHT22;8934;51.194;17.150;2023-07-24T13:52:56;31.30;84.40
17632;DHT22;8934;51.194;17.150;2023-07-24T13:55:44;31.20;85.70
17632;DHT22;8934;51.194;17.150;2023-07-24T13:58:31;31.00;84.20
17632;DHT22;8934;51.194;17.150;2023-07-24T14:01:18;30.80;84.80
17632;DHT22;8934;51.194;17.150;2023-07-24T14:04:06;30.80;84.60
17632;DHT22;8934;51.194;17.150;2023-07-24T14:06:55;30.70;84.00
17632;DHT22;8934;51.194;17.150;2023-07-24T14:09:42;30.70;84.80
17632;DHT22;8934;51.194;17.150;2023-07-24T14:12:30;31.00;85.90
17632;DHT22;8934;51.194;17.150;2023-07-24T14:15:17;31.70;85.40
17632;DHT22;8934;51.194;17.150;2023-07-24T14:18:04;32.50;81.20
17632;DHT22;8934;51.194;17.150;2023-07-24T14:20:52;32.80;80.10
17632;DHT22;8934;51.194;17.150;2023-07-24T14:23:42;32.80;80.30
17632;DHT22;8934;51.194;17.150;2023-07-24T14:26:29;33.00;79.90
17632;DHT22;8934;51.194;17.150;2023-07-24T14:29:17;33.60;78.80
17632;DHT22;8934;51.194;17.150;2023-07-24T14:32:05;33.70;76.70
17632;DHT22;8934;51.194;17.150;2023-07-24T14:34:52;33.50;78.20
17632;DHT22;8934;51.194;17.150;2023-07-24T14:37:40;33.80;79.50
17632;DHT22;8934;51.194;17.150;2023-07-24T14:40:29;34.50;78.00
17632;DHT22;8934;51.194;17.150;2023-07-24T14:43:16;35.20;76.60
17632;DHT22;8934;51.194;17.150;2023-07-24T14:46:04;35.70;75.90
17632;DHT22;8934;51.194;17.150;2023-07-24T14:48:51;35.80;73.60
17632;DHT22;8934;51.194;17.150;2023-07-24T14:51:38;35.20;75.00
17632;DHT22;8934;51.194;17.150;2023-07-24T14:54:26;34.70;75.60
17632;DHT22;8934;51.194;17.150;2023-07-24T14:57:15;34.60;76.00
17632;DHT22;8934;51.194;17.150;2023-07-24T15:00:11;34.80;75.70
17632;DHT22;8934;51.194;17.150;2023-07-24T15:02:59;35.10;75.00
17632;DHT22;8934;51.194;17.150;2023-07-24T15:05:46;34.90;74.80
17632;DHT22;8934;51.194;17.150;2023-07-24T15:08:34;34.40;75.80
17632;DHT22;8934;51.194;17.150;2023-07-24T15:11:21;33.60;76.50
17632;DHT22;8934;51.194;17.150;2023-07-24T15:14:10;33.20;77.80
17632;DHT22;8934;51.194;17.150;2023-07-24T15:16:57;32.70;79.20
17632;DHT22;8934;51.194;17.150;2023-07-24T15:19:45;32.40;80.10
17632;DHT22;8934;51.194;17.150;2023-07-24T15:22:32;32.00;80.70
17632;DHT22;8934;51.194;17.150;2023-07-24T15:25:20;31.60;81.30
17632;DHT22;8934;51.194;17.150;2023-07-24T15:28:07;31.20;83.20
17632;DHT22;8934;51.194;17.150;2023-07-24T15:30:56;30.80;83.20
17632;DHT22;8934;51.194;17.150;2023-07-24T15:33:44;30.50;83.60
17632;DHT22;8934;51.194;17.150;2023-07-24T15:36:31;30.20;84.50
17632;DHT22;8934;51.194;17.150;2023-07-24T15:39:19;30.00;84.60
17632;DHT22;8934;51.194;17.150;2023-07-24T15:42:07;29.70;85.50
17632;DHT22;8934;51.194;17.150;2023-07-24T15:44:54;29.50;86.00
17632;DHT22;8934;51.194;17.150;2023-07-24T15:47:43;29.40;85.80
17632;DHT22;8934;51.194;17.150;2023-07-24T15:50:30;29.40;87.10
17632;DHT22;8934;51.194;17.150;2023-07-24T15:53:17;29.60;88.30
17632;DHT22;8934;51.194;17.150;2023-07-24T15:56:05;29.80;86.40
17632;DHT22;8934;51.194;17.150;2023-07-24T15:58:52;30.00;86.20
17632;DHT22;8934;51.194;17.150;2023-07-24T16:01:41;30.00;85.80
17632;DHT22;8934;51.194;17.150;2023-07-24T16:04:29;30.00;86.40
17632;DHT22;8934;51.194;17.150;2023-07-24T16:07:17;30.00;86.70
17632;DHT22;8934;51.194;17.150;2023-07-24T16:10:05;29.90;86.60
17632;DHT22;8934;51.194;17.150;2023-07-24T16:12:52;29.70;87.30
17632;DHT22;8934;51.194;17.150;2023-07-24T16:15:40;29.60;87.70
17632;DHT22;8934;51.194;17.150;2023-07-24T16:18:30;29.30;88.20
17632;DHT22;8934;51.194;17.150;2023-07-24T16:21:19;29.10;89.10
17632;DHT22;8934;51.194;17.150;2023-07-24T16:24:06;29.00;89.70
17632;DHT22;8934;51.194;17.150;2023-07-24T16:26:53;28.90;90.10
17632;DHT22;8934;51.194;17.150;2023-07-24T16:29:40;28.90;89.90
17632;DHT22;8934;51.194;17.150;2023-07-24T16:32:28;28.80;90.10
17632;DHT22;8934;51.194;17.150;2023-07-24T16:35:15;28.90;90.10
17632;DHT22;8934;51.194;17.150;2023-07-24T16:38:04;28.90;90.20
17632;DHT22;8934;51.194;17.150;2023-07-24T16:40:53;28.90;90.50
17632;DHT22;8934;51.194;17.150;2023-07-24T16:43:40;28.90;91.30
17632;DHT22;8934;51.194;17.150;2023-07-24T16:46:28;28.90;91.60
17632;DHT22;8934;51.194;17.150;2023-07-24T16:49:15;28.90;92.80
17632;DHT22;8934;51.194;17.150;2023-07-24T16:52:04;28.90;92.40
17632;DHT22;8934;51.194;17.150;2023-07-24T16:54:53;28.90;92.80
17632;DHT22;8934;51.194;17.150;2023-07-24T16:57:40;28.60;92.20
17632;DHT22;8934;51.194;17.150;2023-07-24T17:00:27;28.50;92.50
17632;DHT22;8934;51.194;17.150;2023-07-24T17:03:15;28.40;92.60
17632;DHT22;8934;51.194;17.150;2023-07-24T17:06:02;28.40;92.50
17632;DHT22;8934;51.194;17.150;2023-07-24T17:08:49;28.40;92.10
17632;DHT22;8934;51.194;17.150;2023-07-24T17:11:38;28.30;92.30
17632;DHT22;8934;51.194;17.150;2023-07-24T17:14:26;28.10;92.50
17632;DHT22;8934;51.194;17.150;2023-07-24T17:17:13;28.00;92.80
17632;DHT22;8934;51.194;17.150;2023-07-24T17:20:02;27.80;93.10
17632;DHT22;8934;51.194;17.150;2023-07-24T17:22:49;27.60;93.10
17632;DHT22;8934;51.194;17.150;2023-07-24T17:25:36;27.50;93.10
17632;DHT22;8934;51.194;17.150;2023-07-24T17:28:27;27.40;93.30
17632;DHT22;8934;51.194;17.150;2023-07-24T17:31:14;27.20;93.60
17632;DHT22;8934;51.194;17.150;2023-07-24T17:34:01;27.10;93.70
17632;DHT22;8934;51.194;17.150;2023-07-24T17:36:49;27.00;93.90
17632;DHT22;8934;51.194;17.150;2023-07-24T17:39:36;26.90;94.10
17632;DHT22;8934;51.194;17.150;2023-07-24T17:42:24;26.70;94.50